sensor_id;sensor_type;location;lat;lon;timestamp;pressure;altitude;pressure_sealevel;temperature;humidity
12879;BME280;20617;49.476;10.986;2022-11-25T00:01:05;98321.47;;;5.50;100.00
12879;BME280;20617;49.476;10.986;2022-11-25T00:03:10;98329.25;;;5.48;100.00
12879;BME280;20617;49.476;10.986;2022-11-25T00:05:15;98325.84;;;5.48;100.00
12879;BME280;20617;49.476;10.986;2022-11-25T00:07:20;98330.22;;;5.42;100.00
12879;BME280;20617;49.476;10.986;2022-11-25T00:09:25;98327.72;;;5.39;100.00
12879;BME280;20617;49.476;10.986;2022-11-25T00:11:31;98325.16;;;5.38;100.00
12879;BME280;20617;49.476;10.986;2022-11-25T00:13:40;98324.25;;;5.40;100.00
12879;BME280;20617;49.476;10.986;2022-11-25T00:15:46;98327.72;;;5.39;100.00
12879;BME280;20617;49.476;10.986;2022-11-25T00:17:51;98326.88;;;5.39;100.00
12879;BME280;20617;49.476;10.986;2022-11-25T00:19:55;98326.03;;;5.38;100.00
12879;BME280;20617;49.476;10.986;2022-11-25T00:22:02;98322.63;;;5.36;100.00
12879;BME280;20617;49.476;10.986;2022-11-25T00:24:07;98320.94;;;5.34;100.00
12879;BME280;20617;49.476;10.986;2022-11-25T00:26:13;98318.44;;;5.29;100.00
12879;BME280;20617;49.476;10.986;2022-11-25T00:28:19;98323.66;;;5.28;100.00
12879;BME280;20617;49.476;10.986;2022-11-25T00:30:26;98320.19;;;5.29;100.00
12879;BME280;20617;49.476;10.986;2022-11-25T00:32:31;98322.75;;;5.30;100.00
12879;BME280;20617;49.476;10.986;2022-11-25T00:34:36;98312.38;;;5.32;100.00
12879;BME280;20617;49.476;10.986;2022-11-25T00:36:42;98309.78;;;5.33;100.00
12879;BME280;20617;49.476;10.986;2022-11-25T00:38:47;98315.78;;;5.32;100.00
12879;BME280;20617;49.476;10.986;2022-11-25T00:40:56;98308.94;;;5.31;100.00
12879;BME280;20617;49.476;10.986;2022-11-25T00:43:13;98309.00;;;5.28;100.00
12879;BME280;20617;49.476;10.986;2022-11-25T00:45:33;98319.44;;;5.24;100.00
12879;BME280;20617;49.476;10.986;2022-11-25T00:47:39;98321.19;;;5.21;100.00
12879;BME280;20617;49.476;10.986;2022-11-25T00:49:46;98319.47;;;5.20;100.00
12879;BME280;20617;49.476;10.986;2022-11-25T00:51:51;98316.16;;;5.14;100.00
12879;BME280;20617;49.476;10.986;2022-11-25T00:53:56;98323.13;;;5.10;100.00
12879;BME280;20617;49.476;10.986;2022-11-25T00:56:02;98321.44;;;5.09;100.00
12879;BME280;20617;49.476;10.986;2022-11-25T00:58:19;98325.69;;;5.10;100.00
12879;BME280;20617;49.476;10.986;2022-11-25T01:00:23;98325.66;;;5.13;100.00
12879;BME280;20617;49.476;10.986;2022-11-25T01:02:31;98326.44;;;5.17;100.00
12879;BME280;20617;49.476;10.986;2022-11-25T01:04:36;98321.31;;;5.15;100.00
12879;BME280;20617;49.476;10.986;2022-11-25T01:06:42;98323.91;;;5.14;100.00
12879;BME280;20617;49.476;10.986;2022-11-25T01:08:49;98316.22;;;5.11;100.00
12879;BME280;20617;49.476;10.986;2022-11-25T01:10:57;98323.19;;;5.06;100.00
12879;BME280;20617;49.476;10.986;2022-11-25T01:13:02;98323.25;;;5.03;100.00
12879;BME280;20617;49.476;10.986;2022-11-25T01:15:08;98313.84;;;5.00;100.00
12879;BME280;20617;49.476;10.986;2022-11-25T01:17:13;98319.03;;;4.98;100.00
12879;BME280;20617;49.476;10.986;2022-11-25T01:19:20;98324.38;;;4.89;100.00
12879;BME280;20617;49.476;10.986;2022-11-25T01:21:27;98332.19;;;4.86;100.00
12879;BME280;20617;49.476;10.986;2022-11-25T01:23:32;98331.34;;;4.83;100.00
12879;BME280;20617;49.476;10.986;2022-11-25T01:25:38;98330.50;;;4.82;100.00
12879;BME280;20617;49.476;10.986;2022-11-25T01:27:43;98330.56;;;4.81;100.00
12879;BME280;20617;49.476;10.986;2022-11-25T01:29:48;98324.59;;;4.77;100.00
12879;BME280;20617;49.476;10.986;2022-11-25T01:31:54;98329.72;;;4.80;100.00
12879;BME280;20617;49.476;10.986;2022-11-25T01:34:02;98334.00;;;4.80;100.00
12879;BME280;20617;49.476;10.986;2022-11-25T01:36:13;98336.56;;;4.80;100.00
12879;BME280;20617;49.476;10.986;2022-11-25T01:38:18;98329.78;;;4.77;100.00
12879;BME280;20617;49.476;10.986;2022-11-25T01:40:23;98329.78;;;4.74;100.00
12879;BME280;20617;49.476;10.986;2022-11-25T01:42:29;98322.94;;;4.74;100.00
12879;BME280;20617;49.476;10.986;2022-11-25T01:44:35;98324.63;;;4.74;100.00
12879;BME280;20617;49.476;10.986;2022-11-25T01:46:53;98326.41;;;4.72;100.00
12879;BME280;20617;49.476;10.986;2022-11-25T01:48:59;98317.91;;;4.67;100.00
12879;BME280;20617;49.476;10.986;2022-11-25T01:51:15;98329.94;;;4.65;100.00
12879;BME280;20617;49.476;10.986;2022-11-25T01:53:23;98330.00;;;4.63;100.00
12879;BME280;20617;49.476;10.986;2022-11-25T01:55:32;98331.75;;;4.61;100.00
12879;BME280;20617;49.476;10.986;2022-11-25T01:57:41;98323.06;;;4.65;100.00
12879;BME280;20617;49.476;10.986;2022-11-25T01:59:50;98325.75;;;4.61;100.00
12879;BME280;20617;49.476;10.986;2022-11-25T02:14:51;98334.38;;;4.60;100.00
12879;BME280;20617;49.476;10.986;2022-11-25T02:16:59;98330.13;;;4.56;100.00
12879;BME280;20617;49.476;10.986;2022-11-25T02:19:15;98332.69;;;4.56;100.00
12879;BME280;20617;49.476;10.986;2022-11-25T02:21:24;98330.28;;;4.45;100.00
12879;BME280;20617;49.476;10.986;2022-11-25T02:23:38;98332.91;;;4.42;100.00
12879;BME280;20617;49.476;10.986;2022-11-25T02:25:47;98327.75;;;4.42;100.00
12879;BME280;20617;49.476;10.986;2022-11-25T02:27:55;98331.22;;;4.39;100.00
12879;BME280;20617;49.476;10.986;2022-11-25T02:30:02;98329.63;;;4.34;100.00
12879;BME280;20617;49.476;10.986;2022-11-25T02:32:08;98336.53;;;4.31;100.00
12879;BME280;20617;49.476;10.986;2022-11-25T02:34:14;98330.53;;;4.29;100.00
12879;BME280;20617;49.476;10.986;2022-11-25T02:36:21;98330.59;;;4.26;100.00
12879;BME280;20617;49.476;10.986;2022-11-25T02:38:36;98324.63;;;4.23;100.00
12879;BME280;20617;49.476;10.986;2022-11-25T02:40:50;98322.97;;;4.20;100.00
12879;BME280;20617;49.476;10.986;2022-11-25T02:42:58;98322.97;;;4.19;100.00
12879;BME280;20617;49.476;10.986;2022-11-25T02:45:09;98323.84;;;4.18;100.00
12879;BME280;20617;49.476;10.986;2022-11-25T02:47:15;98325.59;;;4.17;100.00
12879;BME280;20617;49.476;10.986;2022-11-25T02:49:21;98326.44;;;4.18;100.00
12879;BME280;20617;49.476;10.986;2022-11-25T02:51:28;98326.41;;;4.19;100.00
12879;BME280;20617;49.476;10.986;2022-11-25T02:53:33;98322.13;;;4.18;100.00
12879;BME280;20617;49.476;10.986;2022-11-25T02:55:39;98329.00;;;4.19;100.00
12879;BME280;20617;49.476;10.986;2022-11-25T02:57:46;98324.75;;;4.17;100.00
12879;BME280;20617;49.476;10.986;2022-11-25T02:59:51;98323.94;;;4.12;100.00
12879;BME280;20617;49.476;10.986;2022-11-25T03:01:56;98334.25;;;4.12;100.00
12879;BME280;20617;49.476;10.986;2022-11-25T03:04:01;98339.41;;;4.10;100.00
12879;BME280;20617;49.476;10.986;2022-11-25T03:06:07;98332.56;;;4.11;100.00
12879;BME280;20617;49.476;10.986;2022-11-25T03:08:13;98330.84;;;4.11;100.00
12879;BME280;20617;49.476;10.986;2022-11-25T03:10:18;98336.81;;;4.12;100.00
12879;BME280;20617;49.476;10.986;2022-11-25T03:12:24;98335.16;;;4.09;100.00
12879;BME280;20617;49.476;10.986;2022-11-25T03:14:34;98346.28;;;4.09;100.00
12879;BME280;20617;49.476;10.986;2022-11-25T03:16:44;98349.75;;;4.07;100.00
12879;BME280;20617;49.476;10.986;2022-11-25T03:18:49;98337.81;;;4.04;100.00
12879;BME280;20617;49.476;10.986;2022-11-25T03:20:54;98339.47;;;4.07;100.00
12879;BME280;20617;49.476;10.986;2022-11-25T03:23:00;98343.72;;;4.09;100.00
12879;BME280;20617;49.476;10.986;2022-11-25T03:25:05;98336.88;;;4.07;100.00
12879;BME280;20617;49.476;10.986;2022-11-25T03:27:10;98337.81;;;4.04;100.00
12879;BME280;20617;49.476;10.986;2022-11-25T03:29:15;98340.41;;;4.01;100.00
12879;BME280;20617;49.476;10.986;2022-11-25T03:31:23;98337.81;;;4.03;100.00
12879;BME280;20617;49.476;10.986;2022-11-25T03:33:28;98339.50;;;4.05;100.00
12879;BME280;20617;49.476;10.986;2022-11-25T03:35:33;98335.19;;;4.06;100.00
12879;BME280;20617;49.476;10.986;2022-11-25T03:37:38;98333.47;;;4.06;100.00
12879;BME280;20617;49.476;10.986;2022-11-25T03:39:45;98330.03;;;4.07;100.00
12879;BME280;20617;49.476;10.986;2022-11-25T03:41:53;98333.41;;;4.09;100.00
12879;BME280;20617;49.476;10.986;2022-11-25T03:43:59;98325.63;;;4.13;100.00
12879;BME280;20617;49.476;10.986;2022-11-25T03:46:05;98339.34;;;4.15;100.00
12879;BME280;20617;49.476;10.986;2022-11-25T03:48:12;98340.19;;;4.15;100.00
12879;BME280;20617;49.476;10.986;2022-11-25T03:50:18;98339.47;;;4.07;100.00
12879;BME280;20617;49.476;10.986;2022-11-25T03:52:23;98338.66;;;4.05;100.00
12879;BME280;20617;49.476;10.986;2022-11-25T03:54:30;98337.81;;;4.03;100.00
12879;BME280;20617;49.476;10.986;2022-11-25T03:56:51;98344.75;;;3.99;100.00
12879;BME280;20617;49.476;10.986;2022-11-25T03:58:56;98340.47;;;3.97;100.00
12879;BME280;20617;49.476;10.986;2022-11-25T04:01:02;98337.91;;;3.97;100.00
12879;BME280;20617;49.476;10.986;2022-11-25T04:03:08;98342.16;;;3.98;100.00
12879;BME280;20617;49.476;10.986;2022-11-25T04:05:16;98333.59;;;3.99;100.00
12879;BME280;20617;49.476;10.986;2022-11-25T04:07:22;98342.16;;;3.99;100.00
12879;BME280;20617;49.476;10.986;2022-11-25T04:09:29;98338.75;;;3.97;100.00
12879;BME280;20617;49.476;10.986;2022-11-25T04:11:37;98340.50;;;3.95;100.00
12879;BME280;20617;49.476;10.986;2022-11-25T04:13:55;98334.50;;;3.95;100.00
12879;BME280;20617;49.476;10.986;2022-11-25T04:16:00;98337.06;;;3.96;100.00
12879;BME280;20617;49.476;10.986;2022-11-25T04:18:05;98332.84;;;3.91;100.00
12879;BME280;20617;49.476;10.986;2022-11-25T04:20:12;98333.75;;;3.88;100.00
12879;BME280;20617;49.476;10.986;2022-11-25T04:22:25;98336.31;;;3.86;100.00
12879;BME280;20617;49.476;10.986;2022-11-25T04:24:31;98330.28;;;3.89;100.00
12879;BME280;20617;49.476;10.986;2022-11-25T04:26:39;98323.44;;;3.88;100.00
12879;BME280;20617;49.476;10.986;2022-11-25T04:28:43;98326.94;;;3.82;100.00
12879;BME280;20617;49.476;10.986;2022-11-25T04:30:49;98326.09;;;3.80;100.00
12879;BME280;20617;49.476;10.986;2022-11-25T04:32:54;98327.88;;;3.78;100.00
12879;BME280;20617;49.476;10.986;2022-11-25T04:35:00;98331.28;;;3.79;100.00
12879;BME280;20617;49.476;10.986;2022-11-25T04:37:05;98329.53;;;3.81;100.00
12879;BME280;20617;49.476;10.986;2022-11-25T04:39:12;98322.72;;;3.77;100.00
12879;BME280;20617;49.476;10.986;2022-11-25T04:41:18;98324.47;;;3.75;100.00
12879;BME280;20617;49.476;10.986;2022-11-25T04:43:23;98323.63;;;3.74;100.00
12879;BME280;20617;49.476;10.986;2022-11-25T04:45:39;98329.66;;;3.73;100.00
12879;BME280;20617;49.476;10.986;2022-11-25T04:48:04;98337.38;;;3.73;100.00
12879;BME280;20617;49.476;10.986;2022-11-25T04:50:13;98333.06;;;3.75;100.00
12879;BME280;20617;49.476;10.986;2022-11-25T04:52:28;98326.19;;;3.76;100.00
12879;BME280;20617;49.476;10.986;2022-11-25T04:54:37;98331.34;;;3.74;100.00
12879;BME280;20617;49.476;10.986;2022-11-25T04:56:42;98328.81;;;3.73;100.00
12879;BME280;20617;49.476;10.986;2022-11-25T04:58:47;98324.50;;;3.72;100.00
12879;BME280;20617;49.476;10.986;2022-11-25T05:01:05;98322.81;;;3.69;100.00
12879;BME280;20617;49.476;10.986;2022-11-25T05:03:13;98322.88;;;3.68;100.00
12879;BME280;20617;49.476;10.986;2022-11-25T05:05:18;98316.03;;;3.63;100.00
12879;BME280;20617;49.476;10.986;2022-11-25T05:07:25;98318.59;;;3.65;100.00
12879;BME280;20617;49.476;10.986;2022-11-25T05:09:31;98329.75;;;3.66;100.00
12879;BME280;20617;49.476;10.986;2022-11-25T05:11:55;98334.84;;;3.69;100.00
12879;BME280;20617;49.476;10.986;2022-11-25T05:14:01;98332.22;;;3.72;100.00
12879;BME280;20617;49.476;10.986;2022-11-25T05:16:07;98336.50;;;3.74;100.00
12879;BME280;20617;49.476;10.986;2022-11-25T05:18:14;98337.34;;;3.75;100.00
12879;BME280;20617;49.476;10.986;2022-11-25T05:20:22;98333.97;;;3.71;100.00
12879;BME280;20617;49.476;10.986;2022-11-25T05:22:29;98330.53;;;3.69;100.00
12879;BME280;20617;49.476;10.986;2022-11-25T05:24:35;98321.13;;;3.68;100.00
12879;BME280;20617;49.476;10.986;2022-11-25T05:26:41;98323.75;;;3.67;100.00
12879;BME280;20617;49.476;10.986;2022-11-25T05:28:49;98322.88;;;3.68;100.00
12879;BME280;20617;49.476;10.986;2022-11-25T05:30:54;98318.56;;;3.68;100.00
12879;BME280;20617;49.476;10.986;2022-11-25T05:32:59;98321.19;;;3.65;100.00
12879;BME280;20617;49.476;10.986;2022-11-25T05:35:05;98322.06;;;3.64;100.00
12879;BME280;20617;49.476;10.986;2022-11-25T05:37:14;98322.91;;;3.63;100.00
12879;BME280;20617;49.476;10.986;2022-11-25T05:39:29;98323.78;;;3.60;100.00
12879;BME280;20617;49.476;10.986;2022-11-25T05:41:53;98322.16;;;3.58;100.00
12879;BME280;20617;49.476;10.986;2022-11-25T05:44:01;98325.56;;;3.57;100.00
12879;BME280;20617;49.476;10.986;2022-11-25T05:46:08;98330.72;;;3.58;100.00
12879;BME280;20617;49.476;10.986;2022-11-25T05:48:20;98334.97;;;3.59;100.00
12879;BME280;20617;49.476;10.986;2022-11-25T05:50:26;98334.97;;;3.59;100.00
12879;BME280;20617;49.476;10.986;2022-11-25T05:52:38;98330.75;;;3.55;100.00
12879;BME280;20617;49.476;10.986;2022-11-25T05:54:43;98334.22;;;3.51;100.00
12879;BME280;20617;49.476;10.986;2022-11-25T05:56:50;98340.25;;;3.49;100.00
12879;BME280;20617;49.476;10.986;2022-11-25T05:59:30;98342.84;;;3.47;100.00
12879;BME280;20617;49.476;10.986;2022-11-25T06:01:43;98341.97;;;3.50;100.00
12879;BME280;20617;49.476;10.986;2022-11-25T06:03:49;98328.22;;;3.52;100.00
12879;BME280;20617;49.476;10.986;2022-11-25T06:05:54;98333.31;;;3.55;100.00
12879;BME280;20617;49.476;10.986;2022-11-25T06:08:00;98331.59;;;3.56;100.00
12879;BME280;20617;49.476;10.986;2022-11-25T06:10:05;98329.03;;;3.56;100.00
12879;BME280;20617;49.476;10.986;2022-11-25T06:12:13;98331.59;;;3.56;100.00
12879;BME280;20617;49.476;10.986;2022-11-25T06:14:22;98334.06;;;3.63;100.00
12879;BME280;20617;49.476;10.986;2022-11-25T06:16:34;98328.91;;;3.63;100.00
12879;BME280;20617;49.476;10.986;2022-11-25T06:18:53;98330.63;;;3.65;100.00
12879;BME280;20617;49.476;10.986;2022-11-25T06:21:00;98328.00;;;3.66;100.00
12879;BME280;20617;49.476;10.986;2022-11-25T06:23:06;98328.84;;;3.70;100.00
12879;BME280;20617;49.476;10.986;2022-11-25T06:25:15;98335.69;;;3.71;100.00
12879;BME280;20617;49.476;10.986;2022-11-25T06:27:22;98336.50;;;3.74;100.00
12879;BME280;20617;49.476;10.986;2022-11-25T06:29:39;98333.97;;;3.73;100.00
12879;BME280;20617;49.476;10.986;2022-11-25T06:31:48;98341.59;;;3.79;100.00
12879;BME280;20617;49.476;10.986;2022-11-25T06:34:14;98341.56;;;3.80;100.00
12879;BME280;20617;49.476;10.986;2022-11-25T06:36:20;98346.66;;;3.83;100.00
12879;BME280;20617;49.476;10.986;2022-11-25T06:38:25;98353.50;;;3.86;100.00
12879;BME280;20617;49.476;10.986;2022-11-25T06:40:31;98349.19;;;3.88;100.00
12879;BME280;20617;49.476;10.986;2022-11-25T06:42:36;98356.97;;;3.85;100.00
12879;BME280;20617;49.476;10.986;2022-11-25T06:44:44;98347.53;;;3.82;100.00
12879;BME280;20617;49.476;10.986;2022-11-25T06:46:52;98349.25;;;3.83;100.00
12879;BME280;20617;49.476;10.986;2022-11-25T06:48:58;98353.53;;;3.84;100.00
12879;BME280;20617;49.476;10.986;2022-11-25T06:51:05;98359.53;;;3.85;100.00
12879;BME280;20617;49.476;10.986;2022-11-25T06:53:10;98356.06;;;3.86;100.00
12879;BME280;20617;49.476;10.986;2022-11-25T06:55:22;98367.22;;;3.86;100.00
12879;BME280;20617;49.476;10.986;2022-11-25T06:57:29;98369.03;;;3.81;100.00
12879;BME280;20617;49.476;10.986;2022-11-25T06:59:35;98371.56;;;3.83;100.00
12879;BME280;20617;49.476;10.986;2022-11-25T07:01:40;98367.22;;;3.88;100.00
12879;BME280;20617;49.476;10.986;2022-11-25T07:03:49;98365.53;;;3.87;100.00
12879;BME280;20617;49.476;10.986;2022-11-25T07:05:55;98361.22;;;3.88;100.00
12879;BME280;20617;49.476;10.986;2022-11-25T07:08:00;98369.75;;;3.93;100.00
12879;BME280;20617;49.476;10.986;2022-11-25T07:10:07;98365.41;;;3.95;100.00
12879;BME280;20617;49.476;10.986;2022-11-25T07:12:12;98362.84;;;3.93;100.00
12879;BME280;20617;49.476;10.986;2022-11-25T07:14:17;98359.44;;;3.91;100.00
12879;BME280;20617;49.476;10.986;2022-11-25T07:16:22;98359.44;;;3.90;100.00
12879;BME280;20617;49.476;10.986;2022-11-25T07:18:29;98370.59;;;3.92;100.00
12879;BME280;20617;49.476;10.986;2022-11-25T07:20:37;98366.25;;;3.95;100.00
12879;BME280;20617;49.476;10.986;2022-11-25T07:22:42;98365.34;;;3.98;100.00
12879;BME280;20617;49.476;10.986;2022-11-25T07:24:48;98367.91;;;3.99;100.00
12879;BME280;20617;49.476;10.986;2022-11-25T07:26:53;98379.88;;;4.03;100.00
12879;BME280;20617;49.476;10.986;2022-11-25T07:29:00;98372.94;;;4.07;100.00
12879;BME280;20617;49.476;10.986;2022-11-25T07:31:14;98380.69;;;4.07;100.00
12879;BME280;20617;49.476;10.986;2022-11-25T07:33:35;98380.63;;;4.12;100.00
12879;BME280;20617;49.476;10.986;2022-11-25T07:35:43;98377.16;;;4.14;100.00
12879;BME280;20617;49.476;10.986;2022-11-25T07:37:49;98384.84;;;4.16;100.00
12879;BME280;20617;49.476;10.986;2022-11-25T07:39:54;98378.84;;;4.17;100.00
12879;BME280;20617;49.476;10.986;2022-11-25T07:41:59;98386.47;;;4.23;100.00
12879;BME280;20617;49.476;10.986;2022-11-25T07:44:05;98389.00;;;4.24;100.00
12879;BME280;20617;49.476;10.986;2022-11-25T07:46:39;98391.53;;;4.27;100.00
12879;BME280;20617;49.476;10.986;2022-11-25T07:48:44;98390.69;;;4.27;100.00
12879;BME280;20617;49.476;10.986;2022-11-25T07:50:52;98395.84;;;4.28;100.00
12879;BME280;20617;49.476;10.986;2022-11-25T07:52:58;98395.75;;;4.33;100.00
12879;BME280;20617;49.476;10.986;2022-11-25T07:55:03;98400.88;;;4.36;100.00
12879;BME280;20617;49.476;10.986;2022-11-25T07:57:08;98404.22;;;4.41;100.00
12879;BME280;20617;49.476;10.986;2022-11-25T07:59:16;98406.81;;;4.41;100.00
12879;BME280;20617;49.476;10.986;2022-11-25T08:01:22;98406.06;;;4.35;100.00
12879;BME280;20617;49.476;10.986;2022-11-25T08:03:28;98408.69;;;4.31;100.00
12879;BME280;20617;49.476;10.986;2022-11-25T08:05:33;98413.88;;;4.27;100.00
12879;BME280;20617;49.476;10.986;2022-11-25T08:07:42;98417.34;;;4.24;100.00
12879;BME280;20617;49.476;10.986;2022-11-25T08:09:47;98417.41;;;4.21;100.00
12879;BME280;20617;49.476;10.986;2022-11-25T08:11:52;98418.38;;;4.14;100.00
12879;BME280;20617;49.476;10.986;2022-11-25T08:13:57;98415.00;;;4.11;100.00
12879;BME280;20617;49.476;10.986;2022-11-25T08:16:04;98413.34;;;4.05;100.00
12879;BME280;20617;49.476;10.986;2022-11-25T08:18:10;98414.16;;;4.07;100.00
12879;BME280;20617;49.476;10.986;2022-11-25T08:20:15;98414.16;;;4.08;100.00
12879;BME280;20617;49.476;10.986;2022-11-25T08:22:20;98414.16;;;4.08;100.00
12879;BME280;20617;49.476;10.986;2022-11-25T08:24:28;98407.28;;;4.11;100.00
12879;BME280;20617;49.476;10.986;2022-11-25T08:26:34;98406.44;;;4.08;100.00
12879;BME280;20617;49.476;10.986;2022-11-25T08:28:41;98401.38;;;4.02;100.00
12879;BME280;20617;49.476;10.986;2022-11-25T08:30:49;98403.97;;;3.99;100.00
12879;BME280;20617;49.476;10.986;2022-11-25T08:32:54;98409.13;;;3.98;100.00
12879;BME280;20617;49.476;10.986;2022-11-25T08:34:59;98408.25;;;4.00;100.00
12879;BME280;20617;49.476;10.986;2022-11-25T08:37:05;98409.91;;;4.06;100.00
12879;BME280;20617;49.476;10.986;2022-11-25T08:39:10;98410.78;;;4.05;100.00
12879;BME280;20617;49.476;10.986;2022-11-25T08:41:38;98410.66;;;4.13;100.00
12879;BME280;20617;49.476;10.986;2022-11-25T08:43:43;98425.19;;;4.18;100.00
12879;BME280;20617;49.476;10.986;2022-11-25T08:45:48;98424.19;;;4.27;100.00
12879;BME280;20617;49.476;10.986;2022-11-25T08:47:54;98420.72;;;4.29;100.00
12879;BME280;20617;49.476;10.986;2022-11-25T08:49:59;98423.25;;;4.34;100.00
12879;BME280;20617;49.476;10.986;2022-11-25T08:52:04;98426.63;;;4.38;100.00
12879;BME280;20617;49.476;10.986;2022-11-25T08:54:09;98428.22;;;4.45;100.00
12879;BME280;20617;49.476;10.986;2022-11-25T08:56:16;98432.44;;;4.52;100.00
12879;BME280;20617;49.476;10.986;2022-11-25T08:58:29;98434.13;;;4.53;100.00
12879;BME280;20617;49.476;10.986;2022-11-25T09:00:34;98432.34;;;4.58;100.00
12879;BME280;20617;49.476;10.986;2022-11-25T09:02:40;98437.44;;;4.63;100.00
12879;BME280;20617;49.476;10.986;2022-11-25T09:04:45;98428.81;;;4.64;100.00
12879;BME280;20617;49.476;10.986;2022-11-25T09:06:50;98432.19;;;4.67;100.00
12879;BME280;20617;49.476;10.986;2022-11-25T09:08:56;98419.25;;;4.72;100.00
12879;BME280;20617;49.476;10.986;2022-11-25T09:11:03;98427.78;;;4.75;100.00
12879;BME280;20617;49.476;10.986;2022-11-25T09:13:08;98422.56;;;4.79;100.00
12879;BME280;20617;49.476;10.986;2022-11-25T09:15:16;98431.00;;;4.88;100.00
12879;BME280;20617;49.476;10.986;2022-11-25T09:17:22;98431.78;;;4.93;100.00
12879;BME280;20617;49.476;10.986;2022-11-25T09:19:28;98440.19;;;5.03;100.00
12879;BME280;20617;49.476;10.986;2022-11-25T09:21:33;98435.81;;;5.10;100.00
12879;BME280;20617;49.476;10.986;2022-11-25T09:23:39;98435.59;;;5.20;100.00
12879;BME280;20617;49.476;10.986;2022-11-25T09:25:50;98432.06;;;5.28;100.00
12879;BME280;20617;49.476;10.986;2022-11-25T09:27:56;98425.16;;;5.28;100.00
12879;BME280;20617;49.476;10.986;2022-11-25T09:30:01;98420.03;;;5.25;100.00
12879;BME280;20617;49.476;10.986;2022-11-25T09:32:11;98417.47;;;5.27;100.00
12879;BME280;20617;49.476;10.986;2022-11-25T09:34:16;98403.78;;;5.20;100.00
12879;BME280;20617;49.476;10.986;2022-11-25T09:36:22;98410.56;;;5.26;100.00
12879;BME280;20617;49.476;10.986;2022-11-25T09:38:27;98409.66;;;5.30;100.00
12879;BME280;20617;49.476;10.986;2022-11-25T09:40:38;98395.69;;;5.40;100.00
12879;BME280;20617;49.476;10.986;2022-11-25T09:42:50;98394.75;;;5.44;100.00
12879;BME280;20617;49.476;10.986;2022-11-25T09:45:16;98400.53;;;5.55;100.00
12879;BME280;20617;49.476;10.986;2022-11-25T09:47:49;98398.66;;;5.65;100.00
12879;BME280;20617;49.476;10.986;2022-11-25T09:50:09;98415.56;;;5.80;100.00
12879;BME280;20617;49.476;10.986;2022-11-25T09:52:21;98416.16;;;5.94;100.00
12879;BME280;20617;49.476;10.986;2022-11-25T09:54:35;98420.09;;;6.12;100.00
12879;BME280;20617;49.476;10.986;2022-11-25T09:56:42;98404.31;;;6.24;100.00
12879;BME280;20617;49.476;10.986;2022-11-25T09:58:55;98414.28;;;6.40;100.00
12879;BME280;20617;49.476;10.986;2022-11-25T10:01:05;98401.25;;;6.46;100.00
12879;BME280;20617;49.476;10.986;2022-11-25T10:03:28;98405.13;;;6.64;100.00
12879;BME280;20617;49.476;10.986;2022-11-25T10:05:37;98407.50;;;6.73;100.00
12879;BME280;20617;49.476;10.986;2022-11-25T10:07:47;98400.56;;;6.75;100.00
12879;BME280;20617;49.476;10.986;2022-11-25T10:09:59;98395.25;;;6.79;100.00
12879;BME280;20617;49.476;10.986;2022-11-25T10:12:11;98400.59;;;6.72;100.00
12879;BME280;20617;49.476;10.986;2022-11-25T10:14:25;98391.97;;;6.73;100.00
12879;BME280;20617;49.476;10.986;2022-11-25T10:16:35;98392.00;;;6.71;100.00
12879;BME280;20617;49.476;10.986;2022-11-25T10:18:58;98376.44;;;6.73;100.00
12879;BME280;20617;49.476;10.986;2022-11-25T10:21:04;98378.28;;;6.69;100.00
12879;BME280;20617;49.476;10.986;2022-11-25T10:23:13;98368.84;;;6.67;100.00
12879;BME280;20617;49.476;10.986;2022-11-25T10:25:29;98377.38;;;6.70;100.00
12879;BME280;20617;49.476;10.986;2022-11-25T10:27:41;98385.03;;;6.75;100.00
12879;BME280;20617;49.476;10.986;2022-11-25T10:29:57;98391.75;;;6.82;100.00
12879;BME280;20617;49.476;10.986;2022-11-25T10:32:15;98389.00;;;6.88;100.00
12879;BME280;20617;49.476;10.986;2022-11-25T10:34:29;98382.00;;;6.92;100.00
12879;BME280;20617;49.476;10.986;2022-11-25T10:36:39;98377.53;;;6.98;100.00
12879;BME280;20617;49.476;10.986;2022-11-25T10:38:54;98373.94;;;7.04;100.00
12879;BME280;20617;49.476;10.986;2022-11-25T10:41:02;98370.47;;;7.05;100.00
12879;BME280;20617;49.476;10.986;2022-11-25T10:43:11;98370.13;;;7.17;100.00
12879;BME280;20617;49.476;10.986;2022-11-25T10:45:20;98365.44;;;7.32;100.00
12879;BME280;20617;49.476;10.986;2022-11-25T10:47:35;98363.22;;;7.49;100.00
12879;BME280;20617;49.476;10.986;2022-11-25T10:49:50;98352.47;;;7.63;100.00
12879;BME280;20617;49.476;10.986;2022-11-25T10:52:05;98349.72;;;7.69;100.00
12879;BME280;20617;49.476;10.986;2022-11-25T10:54:16;98352.13;;;7.75;100.00
12879;BME280;20617;49.476;10.986;2022-11-25T10:56:28;98350.19;;;7.82;100.00
12879;BME280;20617;49.476;10.986;2022-11-25T10:58:35;98355.91;;;7.93;100.00
12879;BME280;20617;49.476;10.986;2022-11-25T11:00:40;98354.03;;;7.98;100.00
12879;BME280;20617;49.476;10.986;2022-11-25T11:02:45;98347.84;;;8.02;100.00
12879;BME280;20617;49.476;10.986;2022-11-25T11:04:55;98354.66;;;8.06;100.00
12879;BME280;20617;49.476;10.986;2022-11-25T11:07:07;98358.75;;;8.13;100.00
12879;BME280;20617;49.476;10.986;2022-11-25T11:09:32;98354.22;;;8.20;100.00
12879;BME280;20617;49.476;10.986;2022-11-25T11:11:46;98353.25;;;8.24;100.00
12879;BME280;20617;49.476;10.986;2022-11-25T11:13:57;98341.75;;;8.31;100.00
12879;BME280;20617;49.476;10.986;2022-11-25T11:16:14;98351.94;;;8.37;100.00
12879;BME280;20617;49.476;10.986;2022-11-25T11:18:27;98345.00;;;8.39;100.00
12879;BME280;20617;49.476;10.986;2022-11-25T11:20:35;98344.09;;;8.41;100.00
12879;BME280;20617;49.476;10.986;2022-11-25T11:22:46;98339.81;;;8.39;100.00
12879;BME280;20617;49.476;10.986;2022-11-25T11:25:04;98356.09;;;8.45;100.00